Nearby METAR Reports

 

KTEB - Teterboro, New Jersey, USA
Distance from station: ENE 2mi, 4km
Updated: 05/25/2019 1:51pm
Mostly cloudy
Mostly cloudy
 Wind from S
Wind: S 15 mph , 24 km/h, Gust: 21 mph , 33 km/h
Temperature: 72°F , 22°C
Dew Point: 52°F , 11°C
Humidity: 50%
Barometer: 30.17 inHg , 1021.7 hPa
Clouds: Mostly cloudy
Visibility: 10 miles , 16 km
Cloud details: Mostly cloudy 7500 ft
2019/05/25 17:51 KTEB 251751Z 17013G18KT 10SM BKN075 22/11 A3017 RMK AO2 SLP217 T02170106 10217 20156 58018
KNYC - Nyc/Central Park, New York, USA
Distance from station: SE 8mi, 13km
Updated: 05/25/2019 1:51pm
Mostly cloudy
Mostly cloudy
 Wind from varies
Wind: varies 5 mph , 7 km/h
Temperature: 70°F , 21°C
Dew Point: 50°F , 10°C
Humidity: 50%
Barometer: 30.22 inHg , 1023.4 hPa
Clouds: Mostly cloudy
Visibility: 10 miles , 16 km
Cloud details: Few Clouds 4200 ft
Mostly cloudy 7500 ft
2019/05/25 17:51 KNYC 251751Z AUTO VRB04KT 10SM FEW042 BKN075 21/10 A3022 RMK AO2 SLP224 T02110100 10217 20156 58015 $
 
KCDW - Caldwell, New Jersey, USA
Distance from station: WNW 10mi, 17km
Updated: 05/25/2019 1:53pm
Mostly cloudy
Mostly cloudy
 Wind from SSW
Wind: SSW 8 mph , 13 km/h
Temperature: 72°F , 22°C
Dew Point: 52°F , 11°C
Humidity: 50%
Barometer: 30.18 inHg , 1022 hPa
Clouds: Mostly cloudy
Visibility: 10 miles , 16 km
Cloud details: Few Clouds 4200 ft
Mostly cloudy 7000 ft
Mostly cloudy 8500 ft
2019/05/25 17:53 KCDW 251753Z 21007KT 150V230 10SM FEW042 BKN070 BKN085 22/11 A3018 RMK AO2 SLP225 T02220106 10228 20156 58018
KLGA - Nyc/La Guardia, New York, USA
Distance from station: ESE 12mi, 19km
Updated: 05/25/2019 1:51pm
Mostly cloudy
Mostly cloudy
 Wind from S
Wind: S 15 mph , 24 km/h
Temperature: 70°F , 21°C
Dew Point: 48°F , 9°C
Humidity: 46%
Barometer: 30.20 inHg , 1022.7 hPa
Clouds: Mostly cloudy
Visibility: 10 miles , 16 km
Cloud details: Mostly cloudy 7500 ft
Mostly cloudy 25000 ft
2019/05/25 17:51 KLGA 251751Z 17013KT 10SM BKN075 BKN250 21/09 A3020 RMK AO2 SLP225 T02110089 10211 20156 58014 $
 
KEWR - Newark, New Jersey, USA
Distance from station: SSW 12mi, 20km
Updated: 05/25/2019 1:51pm
Mostly cloudy
Mostly cloudy
 Wind from SE
Wind: SE 13 mph , 20 km/h, Gust: 20 mph , 31 km/h
Temperature: 70°F , 21°C
Dew Point: 50°F , 10°C
Humidity: 50%
Barometer: 30.18 inHg , 1022 hPa
Clouds: Mostly cloudy
Visibility: 10 miles , 16 km
Cloud details: Partly cloudy 4300 ft
Mostly cloudy 7500 ft
Mostly cloudy 27000 ft
2019/05/25 17:51 KEWR 251751Z 14011G17KT 10SM SCT043 BKN075 BKN270 21/10 A3018 RMK AO2 SLP220 T02060100 10211 20156 58018
KMMU - Morristown Muni, New Jersey, USA
Distance from station: WSW 18mi, 29km
Updated: 05/25/2019 1:45pm
Mostly cloudy
Mostly cloudy
 Wind from WSW
Wind: WSW 10 mph , 17 km/h, Gust: 15 mph , 24 km/h
Temperature: 72°F , 22°C
Dew Point: 55°F , 13°C
Humidity: 57%
Barometer: 30.19 inHg , 1022.4 hPa
Clouds: Mostly cloudy
Visibility: 10 miles , 16 km
Cloud details: Partly cloudy 4000 ft
Mostly cloudy 7500 ft
Mostly cloudy 8500 ft
2019/05/25 17:45 KMMU 251745Z 25009G13KT 10SM SCT040 BKN075 BKN085 22/13 A3019
 
KJFK - Nyc/Jfk Arpt, New York, USA
Distance from station: SE 23mi, 36km
Updated: 05/25/2019 1:51pm
Mostly cloudy
Mostly cloudy
 Wind from SSE
Wind: SSE 15 mph , 24 km/h
Temperature: 64°F , 18°C
Dew Point: 52°F , 11°C
Humidity: 64%
Barometer: 30.23 inHg , 1023.7 hPa
Clouds: Mostly cloudy
Visibility: 10 miles , 16 km
Cloud details: Few Clouds 4200 ft
Partly cloudy 7500 ft
Mostly cloudy 25000 ft
2019/05/25 17:51 KJFK 251751Z 16013KT 10SM FEW042 SCT075 BKN250 18/11 A3023 RMK AO2 SLP236 T01830111 10189 20150 58012
KHPN - White Plains, New York, USA
Distance from station: NE 25mi, 40km
Updated: 05/25/2019 1:56pm
Partly cloudy
Partly cloudy
 Wind from SSE
Wind: SSE 13 mph , 20 km/h, Gust: 20 mph , 31 km/h
Temperature: 66°F , 19°C
Dew Point: 48°F , 9°C
Humidity: 52%
Barometer: 30.19 inHg , 1022.4 hPa
Clouds: Partly cloudy
Visibility: 10 miles , 16 km
Cloud details: Partly cloudy 4000 ft
2019/05/25 17:56 KHPN 251756Z 16011G17KT 10SM SCT040 19/09 A3019 RMK AO2 SLP220 T01940089 10200 20139 58014
 
KSMQ - Somerville, New Jersey, USA
Distance from station: WSW 34mi, 55km
Updated: 05/25/2019 1:53pm
Overcast
Overcast
 Wind from S
Wind: S 9 mph , 15 km/h
Temperature: 72°F , 22°C
Dew Point: 55°F , 13°C
Humidity: 57%
Barometer: 30.16 inHg , 1021.3 hPa
Clouds: Overcast
Visibility: 10 miles , 16 km
Cloud details: Overcast 9000 ft
2019/05/25 17:53 KSMQ 251753Z AUTO 19008KT 160V230 10SM OVC090 22/13 A3016 RMK AO2 SLP214 T02220128 10222 20144 58019
K12N - Andover, New Jersey, USA
Distance from station: WNW 36mi, 57km
Updated: 05/25/2019 1:54pm

 Wind from varies
Wind: varies 7 mph , 11 km/h
Temperature: 70°F , 21°C
Dew Point: 54°F , 12°C
Humidity: 57%
Barometer: 30.17 inHg , 1021.7 hPa
2019/05/25 17:54 K12N 251754Z AUTO VRB06KT 21/12 A3017 RMK AO1 SLP214 T02060117 10206 20139 58020
 
KFRG - Farmingdale, New York, USA
Distance from station: ESE 36mi, 58km
Updated: 05/25/2019 1:53pm
Clear
Clear
 Wind from SSW
Wind: SSW 12 mph , 19 km/h
Temperature: 64°F , 18°C
Dew Point: 50°F , 10°C
Humidity: 60%
Barometer: 30.23 inHg , 1023.7 hPa
Clouds: Clear
Visibility: 10 miles , 16 km
2019/05/25 17:53 KFRG 251753Z 21010KT 10SM CLR 18/10 A3023 RMK AO2 SLP235 T01830100 10189 20144 58009
KFWN - Sussex, New Jersey, USA
Distance from station: NW 37mi, 60km
Updated: 05/25/2019 1:53pm
Overcast
Overcast
 Wind from S
Wind: S 7 mph , 11 km/h
Temperature: 70°F , 21°C
Dew Point: 55°F , 13°C
Humidity: 60%
Barometer: 30.17 inHg , 1021.7 hPa
Clouds: Overcast
Visibility: 10 miles , 16 km
Cloud details: Partly cloudy 3700 ft
Overcast 8500 ft
2019/05/25 17:53 KFWN 251753Z AUTO 19006KT 10SM SCT037 OVC085 21/13 A3017 RMK AO2 SLP217 T02060128 10206 20128 58018
 
KSWF - Newburgh/Stewart, New York, USA
Distance from station: 0 45mi, 72km
Updated: 05/25/2019 1:45pm
Mostly cloudy
Mostly cloudy
 Wind from W
Wind: W 7 mph , 11 km/h
Temperature: 70°F , 21°C
Dew Point: 55°F , 13°C
Humidity: 60%
Barometer: 30.17 inHg , 1021.7 hPa
Clouds: Mostly cloudy
Visibility: 10 miles , 16 km
Cloud details: Mostly cloudy 3000 ft
2019/05/25 17:45 KSWF 251745Z 27006KT 10SM BKN030 21/13 A3017
KMGJ - Montgomery, New York, USA
Distance from station: NNW 47mi, 75km
Updated: 05/25/2019 1:54pm
Overcast
Overcast
 Wind from S
Wind: S 12 mph , 19 km/h
Temperature: 68°F , 20°C
Dew Point: 54°F , 12°C
Humidity: 60%
Barometer: 30.15 inHg , 1021 hPa
Clouds: Overcast
Visibility: 10 miles , 16 km
Cloud details: Mostly cloudy 3900 ft
Overcast 7000 ft
2019/05/25 17:54 KMGJ 251754Z AUTO 19010KT 10SM BKN039 OVC070 20/12 A3015 RMK AO2 SLP209 T02000122 10206 20122 58020
 
KBLM - Belmar/Farmdale, New Jersey, USA
Distance from station: S 47mi, 76km
Updated: 05/25/2019 1:56pm
Mostly cloudy
Mostly cloudy
 Wind from SE
Wind: SE 13 mph , 20 km/h, Gust: 20 mph , 31 km/h
Temperature: 68°F , 20°C
Dew Point: 48°F , 9°C
Humidity: 49%
Barometer: 30.22 inHg , 1023.4 hPa
Clouds: Mostly cloudy
Visibility: 10 miles , 16 km
Cloud details: Mostly cloudy 7500 ft
2019/05/25 17:56 KBLM 251756Z AUTO 14011G17KT 10SM BKN075 20/09 A3022 RMK AO2 SLP235 T02000094 10200 20150 58014
KDXR - Danbury, Connecticut, USA
Distance from station: NE 47mi, 76km
Updated: 05/25/2019 1:53pm
Overcast
Overcast
 Wind from S
Wind: S 10 mph , 17 km/h, Gust: 16 mph , 26 km/h
Temperature: 66°F , 19°C
Dew Point: 48°F , 9°C
Humidity: 52%
Barometer: 30.19 inHg , 1022.4 hPa
Clouds: Overcast
Visibility: 10 miles , 16 km
Cloud details: Overcast 4100 ft
2019/05/25 17:53 KDXR 251753Z 19009G14KT 10SM OVC041 19/09 A3019 RMK AO2 SLP220 T01940094 10206 20139 58018
 
KISP - Islip, New York, USA
Distance from station: E 52mi, 83km
Updated: 05/25/2019 1:56pm
Partly cloudy
Partly cloudy
 Wind from SW
Wind: SW 10 mph , 17 km/h
Temperature: 68°F , 20°C
Dew Point: 50°F , 10°C
Humidity: 53%
Barometer: 30.22 inHg , 1023.4 hPa
Clouds: Partly cloudy
Visibility: 10 miles , 16 km
Cloud details: Few Clouds 6000 ft
Few Clouds 20000 ft
Partly cloudy 25000 ft
2019/05/25 17:56 KISP 251756Z 22009KT 10SM FEW060 FEW200 SCT250 20/10 A3022 RMK AO2 SLP232 T02000100 10200 20150 58008
KBDR - Bridgeport, Connecticut, USA
Distance from station: ENE 54mi, 87km
Updated: 05/25/2019 1:52pm
Clear
Clear
 Wind from SW
Wind: SW 10 mph , 17 km/h
Temperature: 70°F , 21°C
Dew Point: 50°F , 10°C
Humidity: 50%
Barometer: 30.20 inHg , 1022.7 hPa
Clouds: Clear
Visibility: 10 miles , 16 km
2019/05/25 17:52 KBDR 251752Z 23009KT 10SM CLR 21/10 A3020 RMK AO2 SLP226 T02060100 10206 20144 58014
 
KTTN - Trenton, New Jersey, USA
Distance from station: SW 55mi, 88km
Updated: 05/25/2019 1:53pm
Overcast
Overcast
 Wind from S
Wind: S 10 mph , 17 km/h
Temperature: 70°F , 21°C
Dew Point: 54°F , 12°C
Humidity: 57%
Barometer: 30.18 inHg , 1022 hPa
Clouds: Overcast
Visibility: 10 miles , 16 km
Cloud details: Overcast 8500 ft
2019/05/25 17:53 KTTN 251753Z 17009KT 10SM OVC085 21/12 A3018 RMK AO2 SLP213 T02060122 10206 20144 58020
KPOU - Poughkeepsie, New York, USA
Distance from station: N 55mi, 89km
Updated: 05/25/2019 1:53pm
Overcast
Overcast
 Wind from SSW
Wind: SSW 9 mph , 15 km/h
Temperature: 70°F , 21°C
Dew Point: 52°F , 11°C
Humidity: 53%
Barometer: 30.15 inHg , 1021 hPa
Clouds: Overcast
Visibility: 10 miles , 16 km
Cloud details: Overcast 4100 ft
2019/05/25 17:53 KPOU 251753Z 20008KT 10SM OVC041 21/11 A3015 RMK AO2 SLP205 T02110111 10211 20144 58021
 
KNEL - Lakehurst Nas, New Jersey, USA
Distance from station: SSW 59mi, 95km
Updated: 05/25/2019 1:00pm
Mostly cloudy
Mostly cloudy
 Wind from SSW
Wind: SSW 6 mph , 9 km/h
Temperature: 70°F , 21°C
Dew Point: 52°F , 11°C
Humidity: 53%
Barometer: 30.21 inHg , 1023 hPa
Clouds: Mostly cloudy
Cloud details: Few Clouds 4400 ft
Mostly cloudy 7500 ft
2019/05/25 17:00 KNEL 251700Z AUTO 20005KT FEW044 BKN075 21/11 A3021 RMK AO2 SLP228 T02110111 $
KWRI - Wrightst/Mcguire, New Jersey, USA
Distance from station: SSW 63mi, 102km
Updated: 05/25/2019 1:56pm
Mostly cloudy
Mostly cloudy
 Wind from SSE
Wind: SSE 8 mph , 13 km/h
Temperature: 72°F , 22°C
Dew Point: 52°F , 11°C
Humidity: 50%
Barometer: 30.17 inHg , 1021.7 hPa
Clouds: Mostly cloudy
Visibility: 10 miles , 16 km
Cloud details: Mostly cloudy 8000 ft
Mostly cloudy 18000 ft
2019/05/25 17:56 KWRI 251756Z 15007KT 10SM BKN080 BKN180 22/11 A3017 RMK AO2A SLP216 T02160107 10226 20157 58018 $
 
KHWV - Shirley, New York, USA
Distance from station: E 64mi, 103km
Updated: 05/25/2019 1:56pm
Clear
Clear
 Wind from S
Wind: S 12 mph , 19 km/h
Temperature: 66°F , 19°C
Dew Point: 46°F , 8°C
Humidity: 49%
Barometer: 30.22 inHg , 1023.4 hPa
Clouds: Clear
Visibility: 10 miles , 16 km
2019/05/25 17:56 KHWV 251756Z AUTO 19010KT 10SM CLR 19/08 A3022 RMK AO2 SLP234 T01890078 10200 20144 58008
KMJX - Toms River, New Jersey, USA
Distance from station: S 64mi, 104km
Updated: 05/25/2019 1:56pm
Few Clouds
Few Clouds
 Wind from SSW
Wind: SSW 8 mph , 13 km/h
Temperature: 72°F , 22°C
Dew Point: 52°F , 11°C
Humidity: 50%
Barometer: 30.22 inHg , 1023.4 hPa
Clouds: Few Clouds
Visibility: 10 miles , 16 km
Cloud details: Few Clouds 4300 ft
2019/05/25 17:56 KMJX 251756Z AUTO 20007KT 10SM FEW043 22/11 A3022 RMK AO2 SLP238 T02220111 10222 20156 58014
 
KDYL - Doylestown, Pennsylvania, USA
Distance from station: SW 65mi, 104km
Updated: 05/25/2019 1:54pm
Overcast
Overcast
 Wind from varies
Wind: varies 7 mph , 11 km/h
Temperature: 70°F , 21°C
Dew Point: 54°F , 12°C
Humidity: 57%
Barometer: 30.17 inHg , 1021.7 hPa
Clouds: Overcast
Visibility: 10 miles , 16 km
Cloud details: Few Clouds 3600 ft
Mostly cloudy 6000 ft
Overcast 9000 ft
2019/05/25 17:54 KDYL 251754Z AUTO VRB06KT 10SM FEW036 BKN060 OVC090 21/12 A3017 RMK AO2 SLP216 T02110122 10211 20150 58021 $
KOXC - Oxford/Waterbury, Connecticut, USA
Distance from station: NE 65mi, 105km
Updated: 05/25/2019 1:51pm
Mostly cloudy
Mostly cloudy
 Wind from S
Wind: S 10 mph , 17 km/h
Temperature: 70°F , 21°C
Dew Point: 52°F , 11°C
Humidity: 53%
Barometer: 30.19 inHg , 1022.4 hPa
Clouds: Mostly cloudy
Visibility: 10 miles , 16 km
Cloud details: Mostly cloudy 4400 ft
2019/05/25 17:51 KOXC 251751Z 18009KT 10SM BKN044 21/11 A3019 RMK AO2 SLP233 T02060106 10206 20128 58017
 
KMSV - Monticello, New York, USA
Distance from station: NNW 69mi, 111km
Updated: 05/25/2019 2:07pm
Light rain, Overcast
Light rain, Overcast
 Wind from SSW
Wind: SSW 7 mph , 11 km/h
Temperature: 64°F , 18°C
Dew Point: 52°F , 11°C
Humidity: 64%
Barometer: 30.17 inHg , 1021.7 hPa
Summary: Light rain
Clouds: Overcast
Visibility: 10 miles , 16 km
Cloud details: Mostly cloudy 2800 ft
Mostly cloudy 5000 ft
Overcast 6000 ft
2019/05/25 18:07 KMSV 251807Z AUTO 21006KT 10SM -RA BKN028 BKN050 OVC060 18/11 A3017 RMK AO2 RAB1758 P0000
KHVN - New Haven/Tweed, Connecticut, USA
Distance from station: ENE 70mi, 112km
Updated: 05/25/2019 1:53pm
Few Clouds
Few Clouds
 Wind from SW
Wind: SW 12 mph , 19 km/h
Temperature: 70°F , 21°C
Dew Point: 54°F , 12°C
Humidity: 57%
Barometer: 30.20 inHg , 1022.7 hPa
Clouds: Few Clouds
Visibility: 10 miles , 16 km
Cloud details: Few Clouds 4000 ft
2019/05/25 17:53 KHVN 251753Z 23010KT 10SM FEW040 21/12 A3020 RMK AO2 SLP226 T02060117 10211 20150 58013
 
KMPO - Mt. Pocono, Pennsylvania, USA
Distance from station: WNW 70mi, 113km
Updated: 05/25/2019 1:53pm
Overcast
Overcast
 Wind from SSE
Wind: SSE 10 mph , 17 km/h
Temperature: 61°F , 16°C
Dew Point: 54°F , 12°C
Humidity: 77%
Barometer: 30.18 inHg , 1022 hPa
Clouds: Overcast
Visibility: 10 miles , 16 km
Cloud details: Partly cloudy 1900 ft
Overcast 3900 ft
2019/05/25 17:53 KMPO 251753Z AUTO 16009KT 10SM SCT019 OVC039 16/12 A3018 RMK AO2 RAB22E31 SLP222 P0000 60000 T01610117 10167 20122 58014
KPNE - Philadelphia/Ne, Pennsylvania, USA
Distance from station: SW 72mi, 116km
Updated: 05/25/2019 1:54pm
Overcast
Overcast
 Wind from SSW
Wind: SSW 10 mph , 17 km/h
Temperature: 73°F , 23°C
Dew Point: 52°F , 11°C
Humidity: 47%
Barometer: 30.19 inHg , 1022.4 hPa
Clouds: Overcast
Visibility: 10 miles , 16 km
Cloud details: Few Clouds 6500 ft
Overcast 8500 ft
2019/05/25 17:54 KPNE 251754Z 21009KT 10SM FEW065 OVC085 23/11 A3019 RMK AO2 SLP224 T02330111 10233 20167 58020 $
 
KABE - Allentown, Pennsylvania, USA
Distance from station: W 73mi, 117km
Updated: 05/25/2019 1:51pm
Overcast
Overcast
 Wind from SSW
Wind: SSW 9 mph , 15 km/h
Temperature: 72°F , 22°C
Dew Point: 54°F , 12°C
Humidity: 53%
Barometer: 30.16 inHg , 1021.3 hPa
Clouds: Overcast
Visibility: 10 miles , 16 km
Cloud details: Mostly cloudy 6000 ft
Overcast 7000 ft
2019/05/25 17:51 KABE 251751Z 21008KT 10SM BKN060 OVC070 22/12 A3016 RMK AO2 SLP213 T02220122 10222 20167 58023
KUKT - Quakertown Arp, Pennsylvania, USA
Distance from station: WSW 74mi, 119km
Updated: 05/25/2019 1:55pm
Mostly cloudy
Mostly cloudy
 Wind from S
Wind: S 8 mph , 13 km/h
Temperature: 70°F , 21°C
Dew Point: 55°F , 13°C
Humidity: 60%
Barometer: 30.18 inHg , 1022 hPa
Clouds: Mostly cloudy
Visibility: 10 miles , 16 km
Cloud details: Mostly cloudy 5000 ft
Mostly cloudy 6500 ft
2019/05/25 17:55 KUKT 251755Z AUTO 19007KT 130V210 10SM BKN050 BKN065 21/13 A3018 RMK A01
 
KVAY - Mount Holly, New Jersey, USA
Distance from station: SSW 75mi, 120km
Updated: 05/25/2019 1:54pm
Overcast
Overcast
 Wind from varies
Wind: varies 5 mph , 7 km/h
Temperature: 72°F , 22°C
Dew Point: 54°F , 12°C
Humidity: 53%
Barometer: 30.19 inHg , 1022.4 hPa
Clouds: Overcast
Visibility: 10 miles , 16 km
Cloud details: Partly cloudy 7000 ft
Overcast 8500 ft
2019/05/25 17:54 KVAY 251754Z AUTO VRB04KT 10SM SCT070 OVC085 22/12 A3019 RMK AO2 SLP221 T02170117 10222 20156 58019
KXLL - Allentown Queen, Pennsylvania, USA
Distance from station: WSW 76mi, 122km
Updated: 05/25/2019 1:55pm
Overcast
Overcast
 Wind from S
Wind: S 10 mph , 17 km/h
Temperature: 68°F , 20°C
Dew Point: 54°F , 12°C
Humidity: 60%
Barometer: 30.18 inHg , 1022 hPa
Clouds: Overcast
Visibility: 10 miles , 16 km
Cloud details: Overcast 6000 ft
2019/05/25 17:55 KXLL 251755Z AUTO 17009KT 10SM OVC060 20/12 A3018 RMK AO2
 
KFOK - Westhampton Beac, New York, USA
Distance from station: E 77mi, 124km
Updated: 05/25/2019 1:53pm
Clear
Clear
 Wind from SSW
Wind: SSW 10 mph , 17 km/h
Temperature: 64°F , 18°C
Dew Point: 48°F , 9°C
Humidity: 56%
Barometer: 30.24 inHg , 1024 hPa
Clouds: Clear
Visibility: 10 miles , 16 km
2019/05/25 17:53 KFOK 251753Z 20009KT 10SM CLR 18/09 A3024 RMK AO2 SLP238 T01830094 10194 20144 58008
KLOM - Philly Wings F, Pennsylvania, USA
Distance from station: SW 79mi, 128km
Updated: 05/25/2019 1:55pm
Overcast
Overcast
 Wind from SSE
Wind: SSE 9 mph , 15 km/h
Temperature: 72°F , 22°C
Dew Point: 55°F , 13°C
Humidity: 57%
Barometer: 30.18 inHg , 1022 hPa
Clouds: Overcast
Visibility: 10 miles , 16 km
Cloud details: Overcast 6000 ft
2019/05/25 17:55 KLOM 251755Z AUTO 16008KT 10SM OVC060 22/13 A3018 RMK AO2 T02180128 10221 20157
 
KMMK - Meriden, Connecticut, USA
Distance from station: NE 80mi, 128km
Updated: 05/25/2019 1:53pm
Clear
Clear
 Wind from SSW
Wind: SSW 12 mph , 19 km/h
Temperature: 72°F , 22°C
Dew Point: 48°F , 9°C
Humidity: 44%
Barometer: 30.18 inHg , 1022 hPa
Clouds: Clear
Visibility: 10 miles , 16 km
2019/05/25 17:53 KMMK 251753Z AUTO 20010KT 10SM CLR 22/09 A3018 RMK AO2 SLP217 T02220094 10228 20144 58015
KPTW - Pottstown, Pennsylvania, USA
Distance from station: WSW 88mi, 141km
Updated: 05/25/2019 1:54pm
Overcast
Overcast
 Wind from S
Wind: S 8 mph , 13 km/h
Temperature: 70°F , 21°C
Dew Point: 55°F , 13°C
Humidity: 60%
Barometer: 30.19 inHg , 1022.4 hPa
Clouds: Overcast
Visibility: 10 miles , 16 km
Cloud details: Partly cloudy 3200 ft
Overcast 6000 ft
2019/05/25 17:54 KPTW 251754Z AUTO 17007KT 120V190 10SM SCT032 OVC060 21/13 A3019 RMK AO2 SLP220 T02060128 10206 20150 58019 $
 
KSNC - Chester, Connecticut, USA
Distance from station: ENE 90mi, 146km
Updated: 05/25/2019 1:55pm
Clear
Clear
 Wind from SSW
Wind: SSW 13 mph , 20 km/h, Gust: 21 mph , 33 km/h
Temperature: 70°F , 21°C
Dew Point: 48°F , 9°C
Humidity: 46%
Barometer: 30.20 inHg , 1022.7 hPa
Clouds: Clear
Visibility: 10 miles , 16 km
2019/05/25 17:55 KSNC 251755Z AUTO 21011G18KT 10SM CLR 21/09 A3020 RMK AO2
KPHL - Philadelphia, Pennsylvania, USA
Distance from station: SW 91mi, 146km
Updated: 05/25/2019 1:54pm
Overcast
Overcast
 Wind from SSW
Wind: SSW 14 mph , 22 km/h
Temperature: 72°F , 22°C
Dew Point: 52°F , 11°C
Humidity: 50%
Barometer: 30.18 inHg , 1022 hPa
Clouds: Overcast
Visibility: 10 miles , 16 km
Cloud details: Few Clouds 4000 ft
Partly cloudy 6000 ft
Overcast 8500 ft
2019/05/25 17:54 KPHL 251754Z 20012KT 10SM FEW040 SCT060 OVC085 22/11 A3018 RMK AO2 SLP220 T02220111 10228 20161 58020 $
 
KAVP - Avoca/Wilkes B., Pennsylvania, USA
Distance from station: WNW 91mi, 147km
Updated: 05/25/2019 1:54pm
Mostly cloudy
Mostly cloudy
 Wind from varies
Wind: varies 6 mph , 9 km/h, Gust: 16 mph , 26 km/h
Temperature: 72°F , 22°C
Dew Point: 55°F , 13°C
Humidity: 57%
Barometer: 30.12 inHg , 1020 hPa
Clouds: Mostly cloudy
Visibility: 10 miles , 16 km
Cloud details: Partly cloudy 4700 ft
Mostly cloudy 5500 ft
2019/05/25 17:54 KAVP 251754Z VRB05G14KT 10SM SCT047 BKN055 22/13 A3012 RMK AO2 SLP195 T02170128 10217 20144 58024
KHFD - Hartford/Brainar, Connecticut, USA
Distance from station: NE 96mi, 155km
Updated: 05/25/2019 1:53pm
Few Clouds
Few Clouds
 Wind from S
Wind: S 12 mph , 19 km/h, Gust: 20 mph , 31 km/h
Temperature: 72°F , 22°C
Dew Point: 50°F , 10°C
Humidity: 47%
Barometer: 30.16 inHg , 1021.3 hPa
Clouds: Few Clouds
Visibility: 10 miles , 16 km
Cloud details: Few Clouds 5000 ft
2019/05/25 17:53 KHFD 251753Z 18010G17KT 10SM FEW050 22/10 A3016 RMK AO2 SLP213 T02220100 10228 20150 58018
 
KHTO - East Hampton, New York, USA
Distance from station: E 96mi, 155km
Updated: 05/25/2019 1:55pm
Clear
Clear
 Wind from WSW
Wind: WSW 12 mph , 19 km/h, Gust: 16 mph , 26 km/h
Temperature: 66°F , 19°C
Dew Point: 48°F , 9°C
Humidity: 52%
Barometer: 30.21 inHg , 1023 hPa
Clouds: Clear
Visibility: 10 miles , 16 km
2019/05/25 17:55 KHTO 251755Z AUTO 24010G14KT 10SM CLR 19/09 A3021 RMK AO2 T01890093 10190 20146
KACY - Atlantic City, New Jersey, USA
Distance from station: SSW 99mi, 160km
Updated: 05/25/2019 1:54pm
Mostly cloudy
Mostly cloudy
 Wind from varies
Wind: varies 7 mph , 11 km/h, Gust: 20 mph , 31 km/h
Temperature: 66°F , 19°C
Dew Point: 48°F , 9°C
Humidity: 52%
Barometer: 30.23 inHg , 1023.7 hPa
Clouds: Mostly cloudy
Visibility: 10 miles , 16 km
Cloud details: Mostly cloudy 8000 ft
2019/05/25 17:54 KACY 251754Z VRB06G17KT 10SM BKN080 19/09 A3023 RMK AO2 SLP236 T01940094 10206 20167 58010